Riano, Spain
Current Conditions -  °F | °C
As of 9:00 PM on Saturday 25 Oct 2014 (Local Time) from LELN Reporting Station
Clear Clear  
Wind Chill: 57°   Ceiling: Unl
Heat Index: 57°   Visibility: 6mi
Dew Point: 46°   Wind: 3mph
Humidity: 67%   Direction: 310°NW
Pressure: 30.24"   Gusts: NA
Location:  42.97°N, 5.01°W
Report Text: LELN 251900Z 31003KT CAVOK 14/08 Q1024
Loading
Personal Weather Stations






























Interactive Weather Map
Tropical Storm Tracking
New forecast layout! Learn more

10-Day Weather Forecast

Advertisements
Track Severe Weather on mobile